Time;durP1;ratioP1;P1;durP2;ratioP2;P2;SDS_P1;SDS_P2;PMS_P1;PMS_P2;Temp;Humidity;BMP_temperature;BMP_pressure;BME280_temperature;BME280_humidity;BME280_pressure;Samples;Min_cycle;Max_cycle;Signal;HPM_P1;HPM_P2
2023/12/17 00:00:48;;;;;;;1.65;1.02;;;;;;;7.90;58.43;100408.88;5079870;28;20033;-91
2023/12/17 00:03:14;;;;;;;3.17;0.95;;;;;;;8.35;58.99;100492.34;5082962;28;21761;-91
2023/12/17 00:05:40;;;;;;;4.78;0.90;;;;;;;8.53;59.56;100568.53;5086324;28;20058;-90
2023/12/17 00:08:08;;;;;;;2.35;0.90;;;;;;;8.68;59.84;100543.06;5086340;28;20390;-89
2023/12/17 00:10:36;;;;;;;4.05;1.50;;;;;;;7.71;59.89;100417.50;5085405;28;20059;-91
2023/12/17 00:13:47;;;;;;;2.33;0.80;;;;;;;8.10;59.40;100432.03;5085833;28;20504;-90
2023/12/17 00:16:13;;;;;;;2.10;0.85;;;;;;;8.19;59.93;100479.81;5078455;28;20135;-91
2023/12/17 00:18:39;;;;;;;3.80;1.25;;;;;;;8.49;60.05;100556.13;5083933;28;20186;-90
2023/12/17 00:21:05;;;;;;;8.52;1.25;;;;;;;8.38;59.77;100505.63;5087067;28;20078;-93
2023/12/17 00:23:31;;;;;;;3.67;1.02;;;;;;;8.88;59.58;100575.94;5080690;28;20044;-91
2023/12/17 00:25:57;;;;;;;1.38;0.63;;;;;;;8.05;59.54;100415.22;5089145;28;20405;-91
2023/12/17 00:28:24;;;;;;;3.78;0.93;;;;;;;8.51;59.61;100488.09;5084221;28;20137;-92
2023/12/17 00:30:53;;;;;;;1.27;0.73;;;;;;;8.93;59.98;100573.31;5083396;28;20038;-92
2023/12/17 00:33:19;;;;;;;3.63;0.73;;;;;;;8.42;60.28;100477.41;5084757;28;20044;-92
2023/12/17 00:35:49;;;;;;;3.90;0.90;;;;;;;8.45;60.30;100503.06;5087903;28;20090;-91
2023/12/17 00:38:17;;;;;;;1.05;0.55;;;;;;;8.40;59.63;100488.00;5084070;28;20376;-91
2023/12/17 00:40:46;;;;;;;4.38;0.90;;;;;;;8.87;60.30;100557.34;5081726;28;20110;-92
2023/12/17 00:43:17;;;;;;;1.40;0.88;;;;;;;8.49;60.59;100484.53;5081596;28;20048;-93
2023/12/17 00:45:55;;;;;;;5.80;1.42;;;;;;;8.58;61.12;100537.66;5081828;28;20518;-93
2023/12/17 00:48:28;;;;;;;2.80;0.93;;;;;;;7.73;60.95;100418.41;5087186;28;20044;-91
2023/12/17 00:50:54;;;;;;;2.22;0.95;;;;;;;7.91;60.81;100420.34;5084362;28;20044;-89
2023/12/17 00:53:21;;;;;;;2.53;1.05;;;;;;;8.51;60.62;100496.06;5090193;28;20371;-89
2023/12/17 00:55:47;;;;;;;2.17;0.80;;;;;;;8.74;60.75;100528.09;5086809;28;20474;-91
2023/12/17 00:58:15;;;;;;;3.10;0.90;;;;;;;8.62;60.68;100554.47;5083143;28;20127;-90
2023/12/17 01:00:41;;;;;;;2.95;0.80;;;;;;;8.45;60.29;100477.44;5082387;28;20040;-91
2023/12/17 01:03:08;;;;;;;3.33;1.05;;;;;;;8.54;60.66;100493.41;5082144;28;20040;-88
2023/12/17 01:05:37;;;;;;;3.92;1.10;;;;;;;8.66;61.16;100535.09;5087788;28;20041;-88
2023/12/17 01:08:09;;;;;;;3.58;0.88;;;;;;;7.94;60.61;100421.28;5081303;28;20033;-93
2023/12/17 01:10:35;;;;;;;4.93;0.95;;;;;;;8.95;60.91;100593.69;5085665;28;20186;-92
2023/12/17 01:13:13;;;;;;;;;;;;;;;;;;;;;
2023/12/17 01:15:45;;;;;;;2.47;0.75;;;;;;;8.19;61.73;100474.50;5080232;28;20504;-90
2023/12/17 01:18:14;;;;;;;4.57;0.90;;;;;;;8.75;61.45;100580.25;5082792;28;20291;-91
2023/12/17 01:20:40;;;;;;;2.40;1.23;;;;;;;8.65;60.91;100549.19;5083701;28;20032;-91
2023/12/17 01:23:06;;;;;;;1.58;0.60;;;;;;;8.20;61.19;100482.47;5087330;28;20127;-93
2023/12/17 01:25:36;;;;;;;2.17;1.20;;;;;;;7.71;62.13;100441.31;5084638;28;20063;-91
2023/12/17 01:28:04;;;;;;;2.15;0.70;;;;;;;7.94;61.30;100460.13;5086609;28;20068;-90
2023/12/17 01:30:30;;;;;;;6.20;0.82;;;;;;;8.77;61.12;100612.09;5082647;28;20555;-91
2023/12/17 01:32:57;;;;;;;5.93;0.80;;;;;;;8.15;61.54;100500.06;5086705;28;20044;-92
2023/12/17 01:35:25;;;;;;;2.45;0.85;;;;;;;8.02;61.19;100477.88;5086131;28;20133;-91
2023/12/17 01:37:51;;;;;;;3.03;0.70;;;;;;;8.31;63.02;100606.28;5088625;28;20048;-92
2023/12/17 01:40:20;;;;;;;1.40;0.80;;;;;;;8.17;62.66;100572.53;5084763;28;20044;-92
2023/12/17 01:42:54;;;;;;;5.65;1.33;;;;;;;8.28;62.84;100624.78;5088787;28;20042;-92
2023/12/17 01:45:20;;;;;;;2.63;1.38;;;;;;;7.71;63.90;100576.38;5087625;28;20063;-92
2023/12/17 01:47:46;;;;;;;2.95;0.73;;;;;;;7.23;64.06;100461.03;5087306;28;20087;-91
2023/12/17 01:50:14;;;;;;;3.70;0.85;;;;;;;7.30;63.68;100460.22;5083719;28;20029;-91
2023/12/17 01:52:45;;;;;;;1.85;0.70;;;;;;;7.64;64.24;100566.59;5087691;28;20060;-90
2023/12/17 01:55:13;;;;;;;3.65;0.77;;;;;;;7.33;64.28;100505.25;5087539;28;20094;-90
2023/12/17 01:57:39;;;;;;;2.85;0.57;;;;;;;8.25;63.61;100607.09;5087635;28;20400;-92
2023/12/17 02:02:55;;;;;;;2.85;1.05;;;;;;;7.38;64.24;100482.41;5074102;28;20070;-90
2023/12/17 02:05:24;;;;;;;1.55;0.63;;;;;;;7.31;63.94;100459.38;5090271;28;20036;-87
2023/12/17 02:07:58;;;;;;;3.58;0.93;;;;;;;6.84;66.11;100446.38;5086358;28;20036;-88
2023/12/17 02:10:28;;;;;;;5.18;0.70;;;;;;;7.28;64.97;100467.25;5085956;28;20043;-90
2023/12/17 02:13:09;;;;;;;3.08;0.70;;;;;;;7.14;64.14;100416.81;5091557;28;20036;-91
2023/12/17 02:15:43;;;;;;;4.72;0.70;;;;;;;8.15;65.21;100623.72;5078680;28;20398;-90
2023/12/17 02:18:08;;;;;;;1.27;0.50;;;;;;;6.99;64.48;100446.59;5089757;28;20036;-91
2023/12/17 02:20:37;;;;;;;2.13;0.50;;;;;;;6.86;64.04;100426.13;5088940;28;20044;-91
2023/12/17 02:23:10;;;;;;;3.60;0.70;;;;;;;7.61;62.50;100512.72;5086939;28;20123;-92
2023/12/17 02:25:41;;;;;;;3.00;0.75;;;;;;;8.02;61.20;100541.47;5087998;28;20032;-90
2023/12/17 02:28:17;;;;;;;2.15;0.77;;;;;;;7.90;61.12;100514.81;5087259;28;20051;-92
2023/12/17 02:30:46;;;;;;;2.97;0.52;;;;;;;7.51;61.36;100473.75;5084046;28;20063;-90
2023/12/17 02:33:12;;;;;;;1.52;0.95;;;;;;;7.44;61.43;100461.31;5085915;28;20063;-92
2023/12/17 02:35:43;;;;;;;2.08;0.80;;;;;;;7.58;61.52;100517.06;5085188;28;20127;-89
2023/12/17 02:38:17;;;;;;;1.67;0.75;;;;;;;8.20;61.54;100604.38;5084689;28;20072;-91
2023/12/17 02:40:47;;;;;;;3.25;0.80;;;;;;;8.16;60.16;100551.34;5085004;28;20079;-92
2023/12/17 02:43:18;;;;;;;2.67;0.73;;;;;;;8.29;60.60;100568.25;5088833;28;20120;-91
2023/12/17 02:46:05;;;;;;;0.93;0.63;;;;;;;8.27;59.73;100540.84;5077141;28;20490;-91
2023/12/17 02:48:33;;;;;;;1.85;0.73;;;;;;;7.51;60.45;100427.88;5087618;28;20043;-90
2023/12/17 02:51:04;;;;;;;2.40;0.60;;;;;;;7.94;62.21;100532.53;5081836;28;20062;-91
2023/12/17 02:53:34;;;;;;;1.50;0.70;;;;;;;7.92;60.87;100528.09;5086997;28;20131;-91
2023/12/17 02:56:06;;;;;;;1.90;0.82;;;;;;;7.54;61.92;100473.78;5087042;28;20063;-90
2023/12/17 02:58:40;;;;;;;4.63;1.02;;;;;;;8.27;62.27;100610.66;5083921;28;20059;-91
2023/12/17 03:01:13;;;;;;;2.75;0.80;;;;;;;7.21;63.72;100484.81;5081638;28;20036;-92
2023/12/17 03:03:39;;;;;;;2.85;0.57;;;;;;;7.33;63.09;100514.09;5088340;28;21437;-89
2023/12/17 03:06:07;;;;;;;3.67;0.70;;;;;;;7.36;63.27;100498.25;5087658;28;20060;-89
2023/12/17 03:08:39;;;;;;;4.32;0.73;;;;;;;6.88;64.46;100441.13;5088833;28;20047;-90
2023/12/17 03:11:08;;;;;;;4.20;0.77;;;;;;;7.55;64.26;100560.28;5086403;28;20059;-93
2023/12/17 03:13:41;;;;;;;3.63;0.95;;;;;;;7.05;63.91;100482.78;5084307;28;20048;-90
2023/12/17 03:16:22;;;;;;;1.20;0.50;;;;;;;8.02;61.94;100601.50;5086005;28;20046;-89
2023/12/17 03:18:48;;;;;;;0.95;0.55;;;;;;;8.06;61.31;100558.28;5087168;28;20040;-88
2023/12/17 03:21:23;;;;;;;4.13;1.33;;;;;;;7.79;60.36;100482.03;5085166;28;20464;-92
2023/12/17 03:23:52;;;;;;;1.88;0.63;;;;;;;8.23;60.15;100550.53;5089339;28;20060;-89
2023/12/17 03:26:18;;;;;;;1.98;0.73;;;;;;;7.47;60.71;100421.63;5086563;28;20043;-93
2023/12/17 03:28:44;;;;;;;3.47;0.90;;;;;;;8.43;61.02;100595.81;5089087;28;20047;-90
2023/12/17 03:31:12;;;;;;;3.25;0.40;;;;;;;7.86;60.22;100480.34;5080671;28;20472;-90
2023/12/17 03:33:38;;;;;;;4.15;0.70;;;;;;;8.50;60.18;100575.56;5081817;28;20040;-88
2023/12/17 03:36:11;;;;;;;3.83;0.57;;;;;;;8.53;59.86;100573.84;5085410;28;20101;-91
2023/12/17 03:38:48;;;;;;;1.42;0.73;;;;;;;7.56;59.78;100403.19;5088244;28;20059;-92
2023/12/17 03:41:38;;;;;;;3.67;1.17;;;;;;;7.77;59.99;100418.44;5088714;28;20068;-91
2023/12/17 03:44:11;;;;;;;1.45;0.70;;;;;;;8.19;59.79;100483.34;5084169;28;20058;-90
2023/12/17 03:46:40;;;;;;;1.00;0.63;;;;;;;8.35;60.37;100518.84;5084103;28;20046;-92
2023/12/17 03:49:06;;;;;;;3.30;0.80;;;;;;;8.16;60.71;100479.78;5084182;28;20043;-91
2023/12/17 03:51:34;;;;;;;1.52;0.60;;;;;;;7.90;61.03;100461.84;5084566;28;20135;-92
2023/12/17 03:54:03;;;;;;;2.42;0.88;;;;;;;8.34;61.04;100543.56;5085101;28;20517;-91
2023/12/17 03:56:31;;;;;;;0.95;0.50;;;;;;;7.99;61.25;100496.38;5083894;28;20037;-91
2023/12/17 03:59:05;;;;;;;2.00;0.70;;;;;;;7.78;61.59;100457.28;5084944;28;20071;-93
2023/12/17 04:01:38;;;;;;;1.48;0.70;;;;;;;7.36;62.30;100404.75;5084368;28;20493;-90
2023/12/17 04:04:07;;;;;;;;;;;;;;;8.24;62.08;100557.63;5081519;28;20087;-92
2023/12/17 04:06:46;;;;;;;2.10;1.00;;;;;;;7.05;62.46;100367.31;5086480;28;19952;-91
2023/12/17 04:09:12;;;;;;;1.98;0.52;;;;;;;7.89;62.60;100520.09;5082658;28;20051;-91
2023/12/17 04:12:00;;;;;;;1.50;0.68;;;;;;;7.73;64.28;100517.25;5084906;28;20124;-91
2023/12/17 04:14:33;;;;;;;;;;;;;;;7.89;64.28;100546.59;5081784;28;20561;-91
2023/12/17 04:17:02;;;;;;;2.15;1.10;;;;;;;6.90;62.87;100372.41;5083355;28;19927;-90
2023/12/17 04:19:34;;;;;;;1.92;0.88;;;;;;;6.98;63.24;100382.22;5088204;28;20032;-91
2023/12/17 04:22:02;;;;;;;3.92;1.63;;;;;;;7.90;63.79;100567.81;5078670;28;20048;-92
2023/12/17 04:24:35;;;;;;;2.00;0.88;;;;;;;7.78;64.67;100602.06;5082791;28;20046;-93
2023/12/17 04:27:07;;;;;;;2.38;1.08;;;;;;;6.77;66.61;100496.50;5083184;28;20097;-91
2023/12/17 04:29:34;;;;;;;3.78;0.50;;;;;;;7.20;66.46;100558.00;5082255;28;20048;-91
2023/12/17 04:32:08;;;;;;;1.45;0.50;;;;;;;6.44;67.39;100485.34;5079060;28;20394;-89
2023/12/17 04:34:43;;;;;;;7.75;1.83;;;;;;;5.70;69.44;100440.00;5084887;28;20079;-89
2023/12/17 04:37:17;;;;;;;2.60;1.10;;;;;;;6.56;66.98;100504.97;5084074;28;20032;-91
2023/12/17 04:39:46;;;;;;;3.30;0.98;;;;;;;6.83;66.38;100518.59;5082904;28;20899;-91
2023/12/17 04:42:15;;;;;;;2.30;0.95;;;;;;;6.23;66.62;100444.50;5088140;28;20101;-89
2023/12/17 04:44:45;;;;;;;2.42;0.52;;;;;;;5.98;67.17;100424.69;5084443;28;20115;-89
2023/12/17 04:47:34;;;;;;;2.97;0.90;;;;;;;7.02;67.74;100622.94;5082546;28;20114;-88
2023/12/17 04:50:10;;;;;;;2.53;0.98;;;;;;;6.82;68.85;100643.78;5084910;28;20029;-89
2023/12/17 04:52:38;;;;;;;3.40;1.10;;;;;;;6.38;67.99;100526.69;5086310;28;20050;-90
2023/12/17 04:55:06;;;;;;;1.20;0.65;;;;;;;6.54;67.28;100538.41;5082421;28;20044;-89
2023/12/17 04:57:41;;;;;;;1.83;0.52;;;;;;;6.08;68.38;100507.63;5085910;28;20516;-88
2023/12/17 05:00:10;;;;;;;1.48;0.82;;;;;;;6.55;68.19;100566.63;5079346;28;20726;-88
2023/12/17 05:02:37;;;;;;;3.95;0.90;;;;;;;5.95;70.60;100536.41;5090920;28;20119;-89
2023/12/17 05:05:07;;;;;;;3.22;1.02;;;;;;;6.16;70.18;100559.72;5089779;28;20055;-91
2023/12/17 05:07:36;;;;;;;4.03;1.15;;;;;;;5.46;70.16;100460.59;5087090;28;20040;-92
2023/12/17 05:10:02;;;;;;;1.85;0.65;;;;;;;6.09;72.12;100622.97;5089126;28;20093;-93
2023/12/17 05:12:28;;;;;;;3.05;0.93;;;;;;;5.47;71.79;100487.03;5089771;28;20048;-93
2023/12/17 05:14:56;;;;;;;1.98;0.98;;;;;;;5.91;72.81;100610.22;5084507;28;20119;-92
2023/12/17 05:17:31;;;;;;;2.78;0.98;;;;;;;5.90;73.18;100612.00;5084149;28;20032;-90
2023/12/17 05:20:05;;;;;;;4.78;0.77;;;;;;;5.68;73.29;100576.31;5087643;28;20512;-90
2023/12/17 05:22:33;;;;;;;2.58;1.00;;;;;;;5.31;72.50;100479.63;5088827;28;20123;-90
2023/12/17 05:25:02;;;;;;;2.38;0.90;;;;;;;6.36;72.31;100654.34;5093751;28;20032;-89
2023/12/17 05:27:28;;;;;;;3.13;0.90;;;;;;;5.66;70.57;100484.75;5087851;28;20044;-89
2023/12/17 05:29:59;;;;;;;1.13;0.60;;;;;;;6.27;70.08;100575.78;5088954;28;20066;-90
2023/12/17 05:32:26;;;;;;;2.53;0.82;;;;;;;5.42;71.29;100479.84;5086193;28;20175;-90
2023/12/17 05:34:52;;;;;;;3.30;1.23;;;;;;;6.49;70.90;100629.06;5083628;28;20064;-91
2023/12/17 05:37:26;;;;;;;2.47;0.80;;;;;;;5.69;72.97;100533.22;5084844;28;20051;-91
2023/12/17 05:39:55;;;;;;;4.35;0.73;;;;;;;5.37;73.68;100524.59;5087208;28;20076;-91
2023/12/17 05:42:23;;;;;;;3.28;1.48;;;;;;;5.07;74.29;100474.69;5088804;28;20051;-92
2023/12/17 05:44:52;;;;;;;1.58;1.02;;;;;;;5.92;73.18;100612.91;5086702;28;20040;-93
2023/12/17 05:47:21;;;;;;;3.50;1.02;;;;;;;5.05;72.84;100443.03;5083361;28;20485;-90
2023/12/17 05:49:52;;;;;;;3.83;0.95;;;;;;;5.76;74.28;100602.88;5090462;28;20032;-92
2023/12/17 05:52:18;;;;;;;2.17;0.90;;;;;;;5.91;73.44;100618.16;5087406;28;20045;-93
2023/12/17 05:54:44;;;;;;;3.30;0.82;;;;;;;6.02;72.78;100587.59;5088649;28;20496;-91
2023/12/17 05:57:12;;;;;;;2.58;0.85;;;;;;;5.39;72.57;100483.31;5088776;28;20067;-93
2023/12/17 05:59:38;;;;;;;3.20;1.20;;;;;;;5.85;72.16;100574.00;5086048;28;20036;-88
2023/12/17 06:02:06;;;;;;;4.10;1.35;;;;;;;6.11;71.53;100589.53;5088887;28;20085;-90
2023/12/17 06:04:49;;;;;;;2.42;1.02;;;;;;;6.28;71.06;100579.31;5089590;28;20052;-92
2023/12/17 06:07:17;;;;;;;2.58;1.30;;;;;;;6.84;70.30;100642.94;5088305;28;20020;-91
2023/12/17 06:09:46;;;;;;;2.80;1.08;;;;;;;6.45;70.73;100595.50;5086571;28;20044;-91
2023/12/17 06:12:12;;;;;;;1.20;0.73;;;;;;;6.54;69.81;100577.16;5084735;28;20071;-88
2023/12/17 06:14:49;;;;;;;2.55;0.80;;;;;;;7.26;69.69;100693.91;5086998;28;20063;-90
2023/12/17 06:17:15;;;;;;;3.33;0.75;;;;;;;6.78;69.25;100592.56;5085198;28;20497;-90
2023/12/17 06:19:41;;;;;;;2.03;0.88;;;;;;;5.99;70.97;100510.09;5086992;28;20093;-89
2023/12/17 06:22:16;;;;;;;2.17;1.00;;;;;;;6.69;70.12;100576.56;5084557;28;20059;-91
2023/12/17 06:24:47;;;;;;;1.35;0.82;;;;;;;6.30;70.00;100499.22;5088665;28;20301;-93
2023/12/17 06:27:17;;;;;;;3.00;0.85;;;;;;;7.16;70.45;100655.84;5082468;28;20406;-88
2023/12/17 06:30:04;;;;;;;2.25;1.50;;;;;;;6.65;70.32;100569.44;5087273;28;20032;-89
2023/12/17 06:32:41;;;;;;;2.30;1.02;;;;;;;6.77;69.93;100583.75;5087178;28;20064;-93
2023/12/17 06:35:07;;;;;;;2.38;1.30;;;;;;;7.05;69.65;100626.56;5089010;28;20043;-90
2023/12/17 06:37:36;;;;;;;2.75;0.98;;;;;;;6.39;70.16;100527.56;5083644;28;20047;-91
2023/12/17 06:40:16;;;;;;;3.45;1.45;;;;;;;6.19;71.04;100543.03;5087787;28;20048;-90
2023/12/17 06:42:48;;;;;;;2.72;1.00;;;;;;;6.40;72.08;100610.34;5088733;28;20040;-89
2023/12/17 06:45:54;;;;;;;3.75;1.13;;;;;;;6.78;73.46;100725.66;5086619;28;20044;-92
2023/12/17 06:48:23;;;;;;;4.65;1.27;;;;;;;6.51;73.63;100688.13;5083188;28;20089;-89
2023/12/17 06:50:55;;;;;;;3.70;1.25;;;;;;;5.75;74.47;100565.03;5086168;28;20079;-91
2023/12/17 06:54:03;;;;;;;4.53;1.33;;;;;;;5.76;73.74;100539.50;5087977;28;20044;-91
2023/12/17 06:56:44;;;;;;;5.72;1.40;;;;;;;6.77;73.41;100691.28;5086788;28;20055;-91
2023/12/17 06:59:10;;;;;;;2.03;0.98;;;;;;;5.95;73.86;100564.59;5086024;28;20036;-91
2023/12/17 07:01:41;;;;;;;4.05;1.70;;;;;;;6.12;74.35;100607.19;5085987;28;20036;-92
2023/12/17 07:04:10;;;;;;;4.25;1.70;;;;;;;5.70;74.18;100540.28;5086028;28;20040;-91
2023/12/17 07:06:44;;;;;;;3.10;1.27;;;;;;;6.95;74.51;100744.50;5081745;28;20053;-88
2023/12/17 07:09:14;;;;;;;3.03;1.33;;;;;;;6.32;73.65;100634.88;5085376;28;20040;-92
2023/12/17 07:11:44;;;;;;;5.32;1.80;;;;;;;6.84;74.04;100731.94;5086653;28;20040;-88
2023/12/17 07:14:27;;;;;;;5.57;1.65;;;;;;;6.41;73.81;100646.50;5088415;28;20037;-91
2023/12/17 07:16:55;;;;;;;4.57;1.60;;;;;;;6.44;72.69;100622.78;5076215;28;20055;-88
2023/12/17 07:19:24;;;;;;;3.38;1.17;;;;;;;6.88;72.14;100689.72;5085264;28;20036;-91
2023/12/17 07:21:55;;;;;;;3.33;1.27;;;;;;;6.72;72.12;100664.75;5084568;28;20043;-91
2023/12/17 07:24:35;;;;;;;3.28;1.35;;;;;;;6.93;71.80;100673.94;5084701;28;20486;-91
2023/12/17 07:27:01;;;;;;;1.92;0.85;;;;;;;6.67;71.09;100621.47;5089041;28;20055;-92
2023/12/17 07:29:27;;;;;;;5.40;1.13;;;;;;;7.46;69.74;100708.41;5084627;28;20127;-90
2023/12/17 07:32:03;;;;;;;2.20;1.50;;;;;;;6.99;70.45;100644.97;5078635;28;20086;-88
2023/12/17 07:34:32;;;;;;;4.88;1.80;;;;;;;7.29;69.92;100664.88;5084423;28;20086;-90
2023/12/17 07:37:02;;;;;;;2.58;1.50;;;;;;;7.20;68.61;100608.28;5083514;28;20101;-91
2023/12/17 07:39:35;;;;;;;3.70;1.40;;;;;;;8.05;68.85;100773.78;5084886;28;20048;-91
2023/12/17 07:42:12;;;;;;;4.18;1.75;;;;;;;7.30;68.70;100611.94;5085267;28;20082;-91
2023/12/17 07:44:50;;;;;;;5.43;0.90;;;;;;;7.64;67.96;100628.34;5085180;28;20044;-91
2023/12/17 07:47:22;;;;;;;2.22;0.98;;;;;;;8.28;66.84;100723.72;5081130;28;20040;-90
2023/12/17 07:49:55;;;;;;;2.40;1.00;;;;;;;7.97;67.57;100686.22;5084542;28;20131;-93
2023/12/17 07:52:27;;;;;;;2.75;1.67;;;;;;;8.68;66.47;100780.00;5087803;28;20040;-93
2023/12/17 07:55:05;;;;;;;3.90;1.10;;;;;;;8.48;66.25;100742.63;5088821;28;20044;-90
2023/12/17 07:58:08;;;;;;;4.90;1.52;;;;;;;9.01;64.89;100775.97;5070621;28;20117;-92
2023/12/17 08:00:34;;;;;;;1.90;0.93;;;;;;;8.99;64.83;100732.59;5055792;28;20035;-90
2023/12/17 08:03:25;;;;;;;3.60;1.40;;;;;;;8.23;64.38;100620.31;5079598;28;20158;-92
2023/12/17 08:06:12;;;;;;;3.05;2.75;;;;;;;8.63;62.85;100628.75;5081762;28;20390;-92
2023/12/17 08:09:17;;;;;;;5.32;1.63;;;;;;;9.63;62.63;100804.06;5084430;28;20044;-91
2023/12/17 08:12:24;;;;;;;4.75;1.63;;;;;;;8.50;62.67;100625.94;5019800;28;20041;-93
2023/12/17 08:19:14;;;;;;;5.88;1.90;;;;;;;8.72;62.33;100635.94;5015563;28;20084;-91
2023/12/17 08:22:18;;;;;;;3.47;1.00;;;;;;;8.98;62.66;100632.66;5013508;28;20046;-92
2023/12/17 08:29:19;;;;;;;2.70;1.30;;;;;;;8.84;62.69;100620.13;4995789;28;20107;-92
2023/12/17 08:32:31;;;;;;;3.70;0.93;;;;;;;8.86;61.32;100606.88;5023007;28;20474;-91
2023/12/17 08:36:01;;;;;;;3.03;1.38;;;;;;;8.99;61.51;100597.25;5022182;28;20178;-91
2023/12/17 08:38:47;;;;;;;1.52;0.80;;;;;;;9.43;60.87;100639.19;5037374;28;20168;-92
2023/12/17 08:41:34;;;;;;;;;;;;;;;10.20;61.25;100796.53;5039078;28;20045;-93
2023/12/17 08:52:30;;;;;;;;;;;;;;;;;;;;;
2023/12/17 08:55:43;;;;;;;7.53;1.50;;;;;;;9.93;60.83;100728.09;4828291;29;20104;-93
2023/12/17 08:58:35;;;;;;;1.95;1.15;;;;;;;10.17;60.84;100760.19;4838044;29;20495;-89
2023/12/17 09:01:13;;;;;;;4.15;1.58;;;;;;;9.70;61.58;100630.56;4860087;29;20053;-91
2023/12/17 09:04:33;;;;;;;;;;;;;;;;;;;;;
2023/12/17 09:07:18;;;;;;;4.93;1.08;;;;;;;9.74;59.53;100650.06;4863119;29;20523;-93
2023/12/17 09:09:53;;;;;;;1.90;0.82;;;;;;;9.88;59.08;100624.44;4864947;29;20045;-94
2023/12/17 09:12:45;;;;;;;1.88;1.25;;;;;;;9.83;59.71;100653.66;4880755;29;20057;-93
2023/12/17 09:15:26;;;;;;;5.22;0.90;;;;;;;9.72;58.41;100622.59;4861239;29;20045;-92
2023/12/17 09:18:39;;;;;;;2.70;0.95;;;;;;;9.82;58.02;100627.97;4861739;29;20049;-92
2023/12/17 09:21:14;;;;;;;1.67;0.82;;;;;;;10.55;57.83;100734.72;4861258;29;20135;-92
2023/12/17 09:24:17;;;;;;;2.15;0.70;;;;;;;10.25;56.75;100645.88;4877314;29;20052;-93
2023/12/17 09:27:10;;;;;;;3.28;1.05;;;;;;;11.19;56.73;100774.88;5016295;28;20106;-94
2023/12/17 09:30:09;;;;;;;1.92;1.23;;;;;;;10.69;56.81;100715.28;4935618;29;20143;-92
2023/12/17 09:36:13;;;;;;;;;;;;;;;;;;;;;
2023/12/17 09:38:54;;;;;;;3.63;1.10;;;;;;;10.19;57.03;100590.94;4997440;28;20070;-94
2023/12/17 09:41:32;;;;;;;3.28;1.00;;;;;;;10.25;55.96;100601.56;4980915;28;20050;-92
2023/12/17 09:44:13;;;;;;;2.45;0.80;;;;;;;11.12;56.72;100700.28;4982485;28;20050;-92
2023/12/17 09:46:59;;;;;;;3.45;0.95;;;;;;;10.55;56.46;100630.97;4976849;28;20057;-92
2023/12/17 09:49:56;;;;;;;2.63;0.90;;;;;;;10.48;56.34;100574.22;4988798;28;20550;-92
2023/12/17 09:52:32;;;;;;;2.97;1.08;;;;;;;11.47;57.34;100774.91;4983434;28;20073;-90
2023/12/17 09:55:26;;;;;;;4.22;1.02;;;;;;;11.21;57.93;100765.13;4990428;28;20126;-90
2023/12/17 09:58:03;;;;;;;2.28;1.10;;;;;;;11.69;55.96;100733.19;4983609;28;20042;-91
2023/12/17 10:00:52;;;;;;;3.92;1.23;;;;;;;10.68;56.00;100559.16;4976983;28;20042;-91
2023/12/17 10:03:35;;;;;;;2.13;1.05;;;;;;;11.43;56.09;100733.19;4987405;28;20093;-93
2023/12/17 10:06:06;;;;;;;3.80;1.10;;;;;;;10.94;55.26;100594.69;5060442;28;20071;-92
2023/12/17 10:08:34;;;;;;;3.65;0.98;;;;;;;10.78;55.26;100599.06;5048135;28;20056;-92
2023/12/17 10:11:00;;;;;;;7.88;3.30;;;;;;;12.07;54.58;100750.97;5051606;28;20040;-92
2023/12/17 10:13:33;;;;;;;1.88;0.82;;;;;;;11.16;54.95;100591.13;5078085;28;20471;-90
2023/12/17 10:16:03;;;;;;;2.03;1.02;;;;;;;11.55;54.60;100604.41;5080447;28;20497;-94
2023/12/17 10:19:00;;;;;;;7.88;3.45;;;;;;;12.58;53.32;100740.16;5084844;28;20044;-93
2023/12/17 10:21:28;;;;;;;5.78;1.50;;;;;;;12.23;52.54;100678.03;5087217;28;20470;-91
2023/12/17 10:23:54;;;;;;;6.18;1.88;;;;;;;12.02;53.20;100604.31;5087285;28;20048;-90
2023/12/17 10:26:23;;;;;;;4.75;1.30;;;;;;;11.87;53.23;100575.91;5085669;28;20561;-91
2023/12/17 10:28:53;;;;;;;2.75;1.00;;;;;;;11.18;53.52;100600.00;5083396;28;20044;-93
2023/12/17 10:31:24;;;;;;;2.97;0.95;;;;;;;12.33;52.94;100742.91;5082764;28;20032;-91
2023/12/17 10:34:18;;;;;;;5.38;2.00;;;;;;;11.68;53.97;100643.47;5087019;28;20048;-92
2023/12/17 10:36:49;;;;;;;5.63;1.27;;;;;;;11.75;53.26;100641.69;5086678;28;20037;-91
2023/12/17 10:39:41;;;;;;;14.10;5.18;;;;;;;12.30;53.91;100740.25;5088030;28;20053;-93
2023/12/17 10:42:09;;;;;;;9.07;1.63;;;;;;;10.88;54.80;100569.81;5088063;28;20085;-92
2023/12/17 10:44:40;;;;;;;2.38;1.70;;;;;;;11.07;55.89;100581.34;5086409;28;20040;-93
2023/12/17 10:47:07;;;;;;;2.97;1.13;;;;;;;11.02;57.23;100616.88;5087109;28;20485;-92
2023/12/17 10:49:37;;;;;;;5.40;1.70;;;;;;;12.05;56.93;100718.97;5090379;28;20793;-91
2023/12/17 10:52:08;;;;;;;2.35;1.17;;;;;;;11.54;55.70;100646.16;5085019;28;20389;-91
2023/12/17 10:54:47;;;;;;;3.72;1.08;;;;;;;11.20;55.80;100582.25;5088080;28;20052;-91
2023/12/17 10:57:30;;;;;;;3.35;1.23;;;;;;;11.66;55.53;100640.78;5081405;28;20050;-91
2023/12/17 11:00:24;;;;;;;3.67;1.98;;;;;;;11.23;53.53;100549.41;5084566;28;20452;-92
2023/12/17 11:03:14;;;;;;;2.17;1.02;;;;;;;11.21;53.80;100554.75;5085897;28;20051;-93
2023/12/17 11:06:04;;;;;;;4.10;1.60;;;;;;;11.84;54.20;100638.97;5088314;28;20135;-93
2023/12/17 11:08:48;;;;;;;5.43;1.13;;;;;;;11.79;54.19;100630.13;5085987;28;20063;-95
2023/12/17 11:11:25;;;;;;;2.97;1.38;;;;;;;11.18;53.27;100549.41;5085895;28;20547;-91
2023/12/17 11:13:52;;;;;;;3.35;1.48;;;;;;;11.05;54.19;100534.34;5082665;28;20047;-90
2023/12/17 11:16:33;;;;;;;3.63;1.25;;;;;;;11.57;54.06;100600.84;5085286;28;20049;-93
2023/12/17 11:19:17;;;;;;;4.90;1.30;;;;;;;11.47;54.19;100552.03;5085800;28;20532;-92
2023/12/17 11:21:55;;;;;;;2.53;0.95;;;;;;;12.10;53.25;100679.84;5088333;28;20032;-93
2023/12/17 11:24:33;;;;;;;3.63;1.33;;;;;;;11.79;52.42;100590.13;5084895;28;20043;-94
2023/12/17 11:27:13;;;;;;;4.28;1.80;;;;;;;12.04;53.37;100658.53;5083957;28;20057;-93
2023/12/17 11:30:26;;;;;;;5.10;1.27;;;;;;;11.86;53.25;100594.56;5084320;28;20047;-92
2023/12/17 11:32:59;;;;;;;5.05;1.02;;;;;;;11.89;53.44;100610.59;5085203;28;20048;-93
2023/12/17 11:35:45;;;;;;;1.83;0.90;;;;;;;11.98;53.03;100690.53;5089743;28;20047;-92
2023/12/17 11:38:12;;;;;;;6.10;1.42;;;;;;;10.97;52.23;100470.44;5086773;28;20032;-93
2023/12/17 11:40:40;;;;;;;6.20;1.38;;;;;;;11.97;52.99;100602.56;5083803;28;20059;-92
2023/12/17 11:43:06;;;;;;;11.55;2.47;;;;;;;12.22;53.11;100643.38;5084417;28;20036;-90
2023/12/17 11:45:47;;;;;;;3.13;1.33;;;;;;;11.71;53.48;100572.41;5083171;28;20040;-92
2023/12/17 11:48:14;;;;;;;3.70;1.73;;;;;;;11.56;54.38;100521.81;5086288;28;20089;-93
2023/12/17 11:50:43;;;;;;;7.32;1.35;;;;;;;11.65;53.32;100577.75;5085188;28;20040;-92
2023/12/17 11:53:09;;;;;;;2.78;1.00;;;;;;;11.15;53.73;100456.22;5083206;28;20036;-90
2023/12/17 11:55:49;;;;;;;5.07;1.92;;;;;;;12.31;53.15;100651.31;5082601;28;20134;-92
2023/12/17 11:58:17;;;;;;;3.70;1.90;;;;;;;12.19;53.48;100641.59;5078574;28;20036;-88
2023/12/17 12:00:59;;;;;;;3.15;1.05;;;;;;;11.54;53.23;100486.31;5082797;28;20557;-91
2023/12/17 12:03:25;;;;;;;7.40;2.05;;;;;;;11.88;53.63;100585.72;5086411;28;20044;-89
2023/12/17 12:05:56;;;;;;;4.53;1.20;;;;;;;11.91;53.16;100574.16;5081302;28;20105;-91
2023/12/17 12:08:22;;;;;;;3.03;1.17;;;;;;;11.98;52.11;100535.03;5082082;28;20040;-91
2023/12/17 12:10:56;;;;;;;2.65;1.10;;;;;;;11.73;52.82;100572.38;5083958;28;20050;-91
2023/12/17 12:13:24;;;;;;;3.10;1.20;;;;;;;11.79;53.38;100561.69;5083274;28;20130;-91
2023/12/17 12:15:50;;;;;;;3.13;1.55;;;;;;;11.56;52.93;100496.94;5078640;28;20036;-91
2023/12/17 12:18:20;;;;;;;1.83;1.02;;;;;;;12.36;51.76;100628.19;5086092;28;20037;-90
2023/12/17 12:20:46;;;;;;;5.97;1.70;;;;;;;11.66;52.62;100506.66;5083472;28;20044;-91
2023/12/17 12:23:12;;;;;;;3.67;1.02;;;;;;;12.35;52.37;100622.84;5085934;28;20069;-91
2023/12/17 12:25:38;;;;;;;5.68;1.52;;;;;;;11.42;52.46;100523.63;5086647;28;20501;-90
2023/12/17 12:28:06;;;;;;;2.78;1.10;;;;;;;11.62;53.91;100539.53;5089115;28;20501;-92
2023/12/17 12:30:34;;;;;;;3.58;1.20;;;;;;;12.10;52.53;100561.59;5082964;28;20050;-92
2023/12/17 12:33:13;;;;;;;3.28;1.50;;;;;;;11.41;52.66;100434.84;5085367;28;20040;-93